Time;durP1;ratioP1;P1;durP2;ratioP2;P2;SDS_P1;SDS_P2;PMS_P1;PMS_P2;Temp;Humidity;BMP_temperature;BMP_pressure;BME280_temperature;BME280_humidity;BME280_pressure;Samples;Min_cycle;Max_cycle;Signal;HPM_P1;HPM_P2
2023/07/27 00:00:53;;;;;;;2.72;2.40;;;16.50;99.90;;;;;;5113921;28;20500;-53
2023/07/27 00:03:18;;;;;;;3.17;2.80;;;16.40;99.90;;;;;;5113601;28;20197;-54
2023/07/27 00:05:44;;;;;;;3.22;2.67;;;16.40;99.90;;;;;;5113591;28;20196;-54
2023/07/27 00:08:10;;;;;;;3.28;2.97;;;16.30;99.90;;;;;;5113751;28;20214;-52
2023/07/27 00:10:35;;;;;;;3.00;2.70;;;16.30;99.90;;;;;;5113572;28;20520;-49
2023/07/27 00:13:01;;;;;;;3.05;2.47;;;16.30;99.90;;;;;;5113465;28;20665;-53
2023/07/27 00:15:27;;;;;;;3.53;3.00;;;16.30;99.90;;;;;;5113796;28;20264;-55
2023/07/27 00:17:52;;;;;;;3.67;3.05;;;16.10;99.90;;;;;;5113755;28;20625;-54
2023/07/27 00:20:18;;;;;;;4.13;3.50;;;16.20;99.90;;;;;;5113807;28;20282;-54
2023/07/27 00:22:44;;;;;;;3.13;2.83;;;16.30;99.90;;;;;;5113702;28;20614;-53
2023/07/27 00:25:09;;;;;;;3.67;3.20;;;16.40;99.90;;;;;;5113683;28;20177;-54
2023/07/27 00:27:35;;;;;;;3.92;3.47;;;16.50;99.90;;;;;;5113600;28;20242;-54
2023/07/27 00:30:01;;;;;;;5.25;3.78;;;16.50;99.90;;;;;;5113639;28;20174;-54
2023/07/27 00:32:26;;;;;;;3.45;3.10;;;16.50;99.90;;;;;;5113363;28;20174;-49
2023/07/27 00:34:52;;;;;;;5.40;3.47;;;16.50;99.90;;;;;;5113568;28;20280;-52
2023/07/27 00:37:18;;;;;;;4.80;3.35;;;16.50;99.90;;;;;;5113341;28;20201;-54
2023/07/27 00:39:43;;;;;;;4.07;3.58;;;16.50;99.90;;;;;;5116609;28;20525;-50
2023/07/27 00:42:09;;;;;;;4.47;3.85;;;16.50;99.90;;;;;;5117433;28;20212;-51
2023/07/27 00:44:35;;;;;;;4.43;3.38;;;16.60;99.90;;;;;;5117449;28;20192;-55
2023/07/27 00:47:01;;;;;;;4.05;3.53;;;16.60;99.90;;;;;;5117362;28;20657;-50
2023/07/27 00:49:27;;;;;;;5.57;3.97;;;16.60;99.90;;;;;;5117350;28;20181;-52
2023/07/27 00:51:53;;;;;;;4.65;3.30;;;16.60;99.90;;;;;;5117302;28;20219;-52
2023/07/27 00:54:19;;;;;;;3.95;3.47;;;16.50;99.90;;;;;;5117274;28;20177;-51
2023/07/27 00:56:44;;;;;;;4.82;3.40;;;16.50;99.90;;;;;;5117199;28;20690;-50
2023/07/27 00:59:10;;;;;;;3.85;3.28;;;16.50;99.90;;;;;;5117176;28;20178;-53
2023/07/27 01:01:36;;;;;;;6.03;3.67;;;16.50;99.90;;;;;;5116858;28;20226;-52
2023/07/27 01:04:02;;;;;;;4.47;3.67;;;16.60;99.90;;;;;;5117004;28;20530;-52
2023/07/27 01:06:29;;;;;;;3.60;3.28;;;16.60;99.90;;;;;;5116999;28;20669;-53
2023/07/27 01:08:55;;;;;;;3.85;3.45;;;16.50;99.90;;;;;;5116982;28;20185;-49
2023/07/27 01:11:45;;;;;;;3.70;3.33;;;16.50;99.90;;;;;;5115639;28;20264;-50
2023/07/27 01:14:37;;;;;;;4.10;3.70;;;16.40;99.90;;;;;;5116905;28;20157;-53
2023/07/27 01:17:24;;;;;;;5.95;3.40;;;16.50;99.90;;;;;;5116602;28;20533;-54
2023/07/27 01:20:22;;;;;;;3.95;3.55;;;16.40;99.90;;;;;;5116712;28;20669;-50
2023/07/27 01:22:53;;;;;;;4.13;3.72;;;16.40;99.90;;;;;;5087380;28;20188;-52
2023/07/27 01:25:25;;;;;;;4.00;3.40;;;16.20;99.90;;;;;;5116628;28;20176;-53
2023/07/27 01:27:53;;;;;;;5.50;4.20;;;16.30;99.90;;;;;;5116577;28;20193;-51
2023/07/27 01:30:28;;;;;;;5.35;3.80;;;16.20;99.90;;;;;;5116555;28;20169;-52
2023/07/27 01:33:00;;;;;;;5.30;3.70;;;16.30;99.90;;;;;;5116577;27;20525;-54
2023/07/27 01:35:33;;;;;;;6.60;4.30;;;16.30;99.90;;;;;;5116473;28;20196;-50
2023/07/27 01:38:01;;;;;;;4.38;3.80;;;16.20;99.90;;;;;;5116477;28;20245;-54
2023/07/27 01:40:28;;;;;;;4.43;3.90;;;16.20;99.90;;;;;;5116367;28;20196;-49
2023/07/27 01:42:54;;;;;;;6.00;4.57;;;16.20;99.90;;;;;;5116300;28;20173;-50
2023/07/27 01:45:21;;;;;;;5.75;4.35;;;16.20;99.90;;;;;;5116281;28;20231;-53
2023/07/27 01:47:48;;;;;;;6.00;4.40;;;15.90;99.90;;;;;;5115918;28;20688;-53
2023/07/27 01:50:15;;;;;;;4.97;4.47;;;16.10;99.90;;;;;;5115117;28;20276;-51
2023/07/27 01:52:42;;;;;;;5.35;4.15;;;16.10;99.90;;;;;;5116360;28;20689;-51
2023/07/27 01:55:09;;;;;;;5.97;4.60;;;16.10;99.90;;;;;;5116106;28;20165;-52
2023/07/27 01:57:35;;;;;;;5.95;4.50;;;16.10;99.90;;;;;;5115765;28;20289;-51
2023/07/27 02:00:02;;;;;;;5.07;4.50;;;16.00;99.90;;;;;;5116001;28;20169;-52
2023/07/27 02:02:27;;;;;;;4.88;4.22;;;16.10;99.90;;;;;;5115934;28;20173;-53
2023/07/27 02:04:56;;;;;;;5.80;4.43;;;16.00;99.90;;;;;;5115911;28;20180;-50
2023/07/27 02:07:22;;;;;;;5.65;4.60;;;16.10;99.90;;;;;;5115485;28;20236;-49
2023/07/27 02:09:47;;;;;;;6.50;4.55;;;16.10;99.90;;;;;;5115759;28;20642;-50
2023/07/27 02:12:23;;;;;;;5.28;4.50;;;16.20;99.90;;;;;;5115775;28;20226;-51
2023/07/27 02:15:02;;;;;;;5.35;4.30;;;16.20;99.90;;;;;;5115435;28;20606;-50
2023/07/27 02:17:38;;;;;;;7.50;4.70;;;16.20;99.90;;;;;;5115580;28;20244;-53
2023/07/27 02:20:10;;;;;;;5.43;4.85;;;16.20;99.90;;;;;;5115862;28;20229;-50
2023/07/27 02:22:37;;;;;;;5.72;4.78;;;16.10;99.90;;;;;;5115543;28;20210;-50
2023/07/27 02:25:03;;;;;;;6.32;4.28;;;16.00;99.90;;;;;;5115510;28;20165;-48
2023/07/27 02:27:29;;;;;;;5.00;4.28;;;16.00;99.90;;;;;;5115397;28;20257;-54
2023/07/27 02:29:55;;;;;;;6.22;4.82;;;16.00;99.90;;;;;;5115457;28;20181;-53
2023/07/27 02:32:20;;;;;;;6.10;4.40;;;16.10;99.90;;;;;;5115087;28;20170;-52
2023/07/27 02:34:46;;;;;;;5.97;4.78;;;15.90;99.90;;;;;;5115009;28;20184;-53
2023/07/27 02:37:12;;;;;;;4.35;3.95;;;15.80;99.90;;;;;;5115217;28;20268;-52
2023/07/27 02:39:37;;;;;;;7.72;5.03;;;16.00;99.90;;;;;;5115264;28;20624;-53
2023/07/27 02:42:03;;;;;;;5.97;4.68;;;16.10;99.90;;;;;;5115182;28;20165;-53
2023/07/27 02:44:29;;;;;;;7.05;4.97;;;16.10;99.90;;;;;;5115308;28;20178;-51
2023/07/27 02:46:54;;;;;;;6.43;4.47;;;16.00;99.90;;;;;;5114998;28;20277;-52
2023/07/27 02:49:20;;;;;;;5.18;4.13;;;16.10;99.90;;;;;;5115327;28;20177;-54
2023/07/27 02:51:46;;;;;;;4.95;3.95;;;16.10;99.90;;;;;;5115040;28;20564;-53
2023/07/27 02:54:11;;;;;;;4.53;4.05;;;16.10;99.90;;;;;;5114856;28;20177;-51
2023/07/27 02:56:37;;;;;;;6.38;4.20;;;16.00;99.90;;;;;;5114921;28;20181;-52
2023/07/27 02:59:02;;;;;;;5.43;3.97;;;16.00;99.90;;;;;;5114843;28;20210;-50
2023/07/27 03:01:28;;;;;;;4.03;3.70;;;16.00;99.90;;;;;;5114872;28;20218;-50
2023/07/27 03:03:54;;;;;;;4.07;3.67;;;15.90;99.90;;;;;;5114745;28;20181;-49
2023/07/27 03:06:19;;;;;;;5.63;3.83;;;15.90;99.90;;;;;;5114444;28;20238;-52
2023/07/27 03:08:45;;;;;;;4.20;3.80;;;16.00;99.90;;;;;;5114546;28;20200;-50
2023/07/27 03:11:11;;;;;;;3.58;3.28;;;15.90;99.90;;;;;;5114365;28;20508;-50
2023/07/27 03:13:36;;;;;;;4.95;3.85;;;16.10;99.90;;;;;;5114608;28;20575;-54
2023/07/27 03:16:03;;;;;;;5.05;3.80;;;16.10;99.90;;;;;;5114558;28;20178;-51
2023/07/27 03:18:29;;;;;;;4.70;3.83;;;16.10;99.90;;;;;;5114299;28;20188;-53
2023/07/27 03:20:55;;;;;;;4.38;3.90;;;16.10;99.90;;;;;;5114518;28;20169;-54
2023/07/27 03:23:20;;;;;;;4.72;3.65;;;16.00;99.90;;;;;;5114412;28;20704;-50
2023/07/27 03:25:46;;;;;;;4.47;3.65;;;16.10;99.90;;;;;;5114369;28;20170;-53
2023/07/27 03:28:12;;;;;;;5.43;3.70;;;16.20;99.90;;;;;;5114240;28;20673;-52
2023/07/27 03:30:38;;;;;;;4.30;3.72;;;16.20;99.90;;;;;;5113039;28;20644;-51
2023/07/27 03:33:07;;;;;;;4.38;3.70;;;16.10;99.90;;;;;;5114581;28;20602;-51
2023/07/27 03:35:34;;;;;;;4.95;3.83;;;16.20;99.90;;;;;;5114242;28;20173;-50
2023/07/27 03:37:59;;;;;;;5.30;4.03;;;16.20;99.90;;;;;;5114189;28;20173;-53
2023/07/27 03:40:25;;;;;;;5.22;4.15;;;16.30;99.90;;;;;;5114177;28;20673;-50
2023/07/27 03:42:51;;;;;;;3.83;3.53;;;16.30;99.90;;;;;;5114101;28;20256;-51
2023/07/27 03:45:17;;;;;;;4.32;3.50;;;16.30;99.90;;;;;;5114176;28;20173;-48
2023/07/27 03:47:48;;;;;;;3.63;3.28;;;16.30;99.90;;;;;;5113774;28;20224;-50
2023/07/27 03:50:14;;;;;;;3.60;3.30;;;16.30;99.90;;;;;;5114077;28;20240;-48
2023/07/27 03:52:40;;;;;;;3.22;2.83;;;16.30;99.90;;;;;;5113998;28;20178;-51
2023/07/27 03:55:06;;;;;;;3.25;2.95;;;16.20;99.90;;;;;;5113747;28;20647;-51
2023/07/27 03:57:35;;;;;;;4.25;3.20;;;16.10;99.90;;;;;;5112678;28;20225;-49
2023/07/27 04:00:01;;;;;;;3.50;3.20;;;16.30;99.90;;;;;;5113975;28;20177;-53
2023/07/27 04:02:28;;;;;;;4.00;3.08;;;16.20;99.90;;;;;;5113892;28;20187;-52
2023/07/27 04:04:54;;;;;;;3.40;2.90;;;16.30;99.90;;;;;;5113927;28;20173;-49
2023/07/27 04:07:20;;;;;;;3.90;3.50;;;16.40;99.90;;;;;;5113842;28;20592;-52
2023/07/27 04:09:46;;;;;;;3.13;2.83;;;16.30;99.90;;;;;;5113879;28;20653;-52
2023/07/27 04:12:12;;;;;;;3.20;2.90;;;16.30;99.90;;;;;;5113881;28;20177;-50
2023/07/27 04:14:38;;;;;;;2.85;2.63;;;16.40;99.90;;;;;;5116839;28;20673;-52
2023/07/27 04:17:04;;;;;;;3.17;2.88;;;16.40;99.90;;;;;;5117685;28;20699;-52
2023/07/27 04:19:30;;;;;;;3.70;2.90;;;16.40;99.90;;;;;;5117957;28;20562;-50
2023/07/27 04:21:56;;;;;;;3.95;2.63;;;16.40;99.90;;;;;;5117916;28;20165;-53
2023/07/27 04:24:22;;;;;;;3.13;2.83;;;16.40;99.90;;;;;;5118017;28;20259;-48
2023/07/27 04:26:47;;;;;;;3.25;2.95;;;16.40;99.90;;;;;;5117763;28;20256;-50
2023/07/27 04:29:13;;;;;;;3.33;2.65;;;16.40;99.90;;;;;;5117875;28;20269;-51
2023/07/27 04:31:38;;;;;;;3.40;3.10;;;16.40;99.90;;;;;;5117457;28;20177;-52
2023/07/27 04:34:05;;;;;;;4.00;2.97;;;16.50;99.90;;;;;;5117426;28;20178;-50
2023/07/27 04:36:30;;;;;;;3.95;3.65;;;16.50;99.90;;;;;;5117728;28;20174;-52
2023/07/27 04:38:56;;;;;;;3.72;3.42;;;16.50;99.90;;;;;;5117600;28;20238;-52
2023/07/27 04:41:22;;;;;;;3.28;3.08;;;16.60;99.90;;;;;;5117597;28;20560;-53
2023/07/27 04:43:48;;;;;;;4.47;3.53;;;16.50;99.90;;;;;;5117517;28;20675;-51
2023/07/27 04:46:13;;;;;;;3.85;3.50;;;16.50;99.90;;;;;;5117491;28;20256;-52
2023/07/27 04:48:39;;;;;;;5.32;3.38;;;16.50;99.90;;;;;;5117285;28;20205;-54
2023/07/27 04:51:05;;;;;;;3.80;3.50;;;16.50;99.90;;;;;;5117359;28;20178;-51
2023/07/27 04:53:30;;;;;;;4.07;3.67;;;16.60;99.90;;;;;;5117371;27;20176;-51
2023/07/27 04:55:56;;;;;;;4.35;3.95;;;16.70;99.90;;;;;;5117249;28;20177;-50
2023/07/27 04:58:21;;;;;;;5.88;4.03;;;16.70;99.90;;;;;;5117248;28;20654;-53
2023/07/27 05:00:54;;;;;;;4.38;3.92;;;16.70;99.90;;;;;;5117217;28;20178;-53
2023/07/27 05:03:20;;;;;;;4.55;3.83;;;16.70;99.90;;;;;;5117045;28;20170;-53
2023/07/27 05:05:46;;;;;;;4.78;4.38;;;16.70;99.90;;;;;;5117356;28;20170;-51
2023/07/27 05:08:11;;;;;;;5.32;4.82;;;16.70;99.90;;;;;;5117099;28;20710;-52
2023/07/27 05:10:40;;;;;;;5.38;4.70;;;16.70;99.90;;;;;;5117024;28;20182;-50
2023/07/27 05:13:06;;;;;;;5.40;4.90;;;16.80;99.90;;;;;;5116939;28;20173;-53
2023/07/27 05:15:32;;;;;;;5.90;5.30;;;16.80;99.90;;;;;;5116892;28;20189;-50
2023/07/27 05:17:58;;;;;;;6.13;5.53;;;16.80;99.90;;;;;;5116873;28;20219;-52
2023/07/27 05:20:23;;;;;;;6.47;5.88;;;16.80;99.90;;;;;;5116928;28;20224;-53
2023/07/27 05:22:49;;;;;;;5.65;5.20;;;16.90;99.90;;;;;;5116687;28;20185;-51
2023/07/27 05:25:15;;;;;;;7.70;6.15;;;16.90;99.90;;;;;;5116712;28;20657;-52
2023/07/27 05:27:40;;;;;;;6.75;5.80;;;17.00;99.90;;;;;;5116870;28;20287;-53
2023/07/27 05:30:06;;;;;;;6.50;5.88;;;17.00;99.90;;;;;;5116586;28;20643;-50
2023/07/27 05:32:32;;;;;;;7.18;6.47;;;17.10;99.90;;;;;;5115441;28;20169;-50
2023/07/27 05:34:58;;;;;;;6.22;5.72;;;17.10;99.90;;;;;;5116509;28;20732;-52
2023/07/27 05:37:23;;;;;;;6.78;6.13;;;17.10;99.90;;;;;;5116516;28;20337;-53
2023/07/27 05:39:49;;;;;;;6.90;6.18;;;17.10;99.90;;;;;;5116393;28;20531;-52
2023/07/27 05:42:14;;;;;;;7.28;6.53;;;17.20;99.90;;;;;;5116089;28;20173;-53
2023/07/27 05:44:40;;;;;;;6.82;6.30;;;17.20;99.90;;;;;;5114995;28;20174;-51
2023/07/27 05:47:06;;;;;;;6.30;5.78;;;17.20;99.90;;;;;;5115002;28;20201;-51
2023/07/27 05:49:32;;;;;;;6.40;5.90;;;17.10;99.90;;;;;;5116183;28;20183;-53
2023/07/27 05:51:58;;;;;;;6.20;5.70;;;17.10;99.90;;;;;;5116178;28;20174;-53
2023/07/27 05:54:23;;;;;;;6.47;5.88;;;17.10;99.90;;;;;;5116431;28;20499;-50
2023/07/27 05:56:49;;;;;;;5.68;5.20;;;17.10;99.90;;;;;;5116113;28;20173;-54
2023/07/27 05:59:15;;;;;;;6.00;5.50;;;17.10;99.90;;;;;;5116033;28;20175;-53
2023/07/27 06:01:40;;;;;;;6.18;5.55;;;17.30;99.90;;;;;;5116505;28;20209;-54
2023/07/27 06:04:06;;;;;;;5.88;5.38;;;17.30;99.90;;;;;;5115723;28;20695;-54
2023/07/27 06:06:32;;;;;;;5.15;4.75;;;17.30;99.90;;;;;;5116097;28;20169;-49
2023/07/27 06:08:58;;;;;;;5.45;4.88;;;17.40;99.90;;;;;;5115474;28;20204;-54
2023/07/27 06:11:24;;;;;;;5.60;5.10;;;17.30;99.90;;;;;;5115826;28;20645;-50
2023/07/27 06:13:49;;;;;;;5.30;4.75;;;17.40;99.90;;;;;;5115767;28;20510;-51
2023/07/27 06:16:15;;;;;;;5.00;4.60;;;17.50;99.90;;;;;;5115664;28;20575;-53
2023/07/27 06:18:41;;;;;;;4.80;4.40;;;17.50;99.90;;;;;;5115553;28;20246;-50
2023/07/27 06:21:07;;;;;;;5.30;4.80;;;17.50;99.90;;;;;;5115722;28;20162;-53
2023/07/27 06:23:32;;;;;;;4.82;4.43;;;17.50;99.90;;;;;;5115569;28;20193;-52
2023/07/27 06:25:58;;;;;;;4.88;4.00;;;17.50;99.90;;;;;;5115511;28;20306;-49
2023/07/27 06:28:23;;;;;;;4.10;3.80;;;17.50;99.90;;;;;;5115711;28;20200;-51
2023/07/27 06:30:49;;;;;;;4.95;4.55;;;17.40;99.90;;;;;;5115425;28;20200;-54
2023/07/27 06:33:15;;;;;;;4.78;4.28;;;17.50;99.90;;;;;;5115404;28;20173;-52
2023/07/27 06:35:41;;;;;;;4.10;3.70;;;17.50;99.90;;;;;;5115074;28;20192;-50
2023/07/27 06:38:07;;;;;;;3.80;3.50;;;17.40;99.90;;;;;;5115073;28;20212;-52
2023/07/27 06:40:32;;;;;;;3.75;3.45;;;17.40;99.90;;;;;;5115242;28;20173;-53
2023/07/27 06:42:58;;;;;;;4.28;3.58;;;17.40;99.90;;;;;;5115093;28;20238;-50
2023/07/27 06:45:24;;;;;;;4.55;3.47;;;17.50;99.90;;;;;;5115137;28;20180;-52
2023/07/27 06:47:50;;;;;;;3.90;3.47;;;17.50;99.90;;;;;;5114947;28;20229;-53
2023/07/27 06:50:15;;;;;;;4.78;3.17;;;17.50;99.90;;;;;;5114953;28;20207;-54
2023/07/27 06:52:41;;;;;;;5.00;2.90;;;17.50;99.90;;;;;;5115144;28;20170;-53
2023/07/27 06:55:07;;;;;;;3.47;2.90;;;17.50;99.90;;;;;;5114659;28;20174;-52
2023/07/27 06:57:33;;;;;;;5.25;3.20;;;17.50;99.90;;;;;;5114558;28;20654;-49
2023/07/27 06:59:58;;;;;;;3.97;3.40;;;17.50;99.90;;;;;;5114583;28;20178;-54
2023/07/27 07:02:24;;;;;;;5.40;3.30;;;17.60;99.90;;;;;;5114805;28;20198;-48
2023/07/27 07:04:50;;;;;;;5.38;3.08;;;17.50;99.90;;;;;;5114805;28;20169;-53
2023/07/27 07:07:15;;;;;;;3.60;2.75;;;17.50;99.90;;;;;;5114604;28;20226;-53
2023/07/27 07:09:42;;;;;;;2.80;2.60;;;17.50;99.90;;;;;;5114640;28;20173;-51
2023/07/27 07:12:08;;;;;;;4.32;2.88;;;17.60;99.90;;;;;;5114261;28;20265;-53
2023/07/27 07:14:34;;;;;;;2.97;2.60;;;17.70;99.90;;;;;;5114601;28;20205;-50
2023/07/27 07:17:00;;;;;;;6.05;3.20;;;17.60;99.90;;;;;;5114674;28;20208;-51
2023/07/27 07:19:26;;;;;;;3.53;3.10;;;17.70;99.90;;;;;;5114467;28;20217;-54
2023/07/27 07:21:52;;;;;;;3.22;2.88;;;17.80;99.90;;;;;;5114481;28;20264;-51
2023/07/27 07:24:18;;;;;;;3.63;2.78;;;17.80;99.90;;;;;;5114357;28;20646;-54
2023/07/27 07:26:45;;;;;;;4.40;2.85;;;17.80;99.90;;;;;;5114791;28;20180;-48
2023/07/27 07:29:11;;;;;;;3.45;2.45;;;17.90;99.90;;;;;;5112953;28;20583;-53
2023/07/27 07:31:37;;;;;;;3.88;2.58;;;17.90;99.90;;;;;;5114138;28;20170;-52
2023/07/27 07:34:03;;;;;;;2.55;2.33;;;18.00;99.90;;;;;;5114209;28;20218;-52
2023/07/27 07:36:28;;;;;;;3.20;2.60;;;17.90;99.90;;;;;;5114221;28;20203;-52
2023/07/27 07:38:54;;;;;;;2.47;2.13;;;18.00;99.90;;;;;;5114223;28;20526;-50
2023/07/27 07:41:20;;;;;;;1.83;1.73;;;18.00;99.90;;;;;;5114182;28;20177;-48
2023/07/27 07:43:45;;;;;;;3.30;1.73;;;17.90;99.90;;;;;;5114130;28;20173;-52
2023/07/27 07:46:12;;;;;;;2.78;2.20;;;17.90;99.90;;;;;;5114129;28;20169;-48
2023/07/27 07:48:38;;;;;;;3.60;2.20;;;18.00;99.90;;;;;;5113182;28;20201;-52
2023/07/27 07:51:09;;;;;;;2.33;1.70;;;18.10;99.90;;;;;;5114078;28;20314;-51
2023/07/27 07:53:35;;;;;;;2.15;1.95;;;18.00;99.90;;;;;;5114091;28;20158;-52
2023/07/27 07:56:00;;;;;;;2.92;1.88;;;18.00;99.90;;;;;;5113973;28;20217;-53
2023/07/27 07:58:26;;;;;;;5.50;2.15;;;17.90;99.90;;;;;;5113968;28;20256;-52
2023/07/27 08:00:52;;;;;;;2.17;1.98;;;17.90;99.90;;;;;;5113945;28;20218;-51
2023/07/27 08:03:17;;;;;;;4.20;2.25;;;18.00;99.90;;;;;;5112866;28;20252;-49
2023/07/27 08:05:43;;;;;;;3.80;2.08;;;18.10;99.90;;;;;;5113965;28;20165;-51
2023/07/27 08:08:09;;;;;;;2.25;1.88;;;17.90;99.90;;;;;;5113823;28;20209;-53
2023/07/27 08:10:34;;;;;;;1.98;1.60;;;17.80;99.90;;;;;;5113851;28;20529;-51
2023/07/27 08:13:00;;;;;;;5.82;1.95;;;17.80;99.90;;;;;;5113593;28;20214;-52
2023/07/27 08:15:26;;;;;;;1.95;1.80;;;17.80;99.90;;;;;;5113959;28;20177;-53
2023/07/27 08:17:51;;;;;;;2.30;1.75;;;17.70;99.90;;;;;;5113894;28;20637;-50
2023/07/27 08:20:17;;;;;;;2.55;2.13;;;17.80;99.90;;;;;;5113936;28;20236;-51
2023/07/27 08:22:43;;;;;;;3.67;1.75;;;18.00;99.90;;;;;;5113785;28;20161;-49
2023/07/27 08:25:08;;;;;;;3.30;1.80;;;18.10;99.90;;;;;;5113465;28;20177;-53
2023/07/27 08:27:34;;;;;;;3.92;1.92;;;18.20;99.90;;;;;;5113693;28;20197;-50
2023/07/27 08:30:01;;;;;;;3.05;1.90;;;18.10;99.90;;;;;;5113685;28;20511;-53
2023/07/27 08:32:27;;;;;;;2.85;1.92;;;18.20;99.90;;;;;;5113915;28;20264;-52
2023/07/27 08:34:53;;;;;;;2.10;1.90;;;18.20;99.90;;;;;;5113633;28;20261;-51
2023/07/27 08:37:18;;;;;;;2.83;1.77;;;18.20;99.90;;;;;;5113611;28;20508;-53
2023/07/27 08:39:44;;;;;;;2.63;1.80;;;18.00;99.90;;;;;;5113572;28;20227;-50
2023/07/27 08:42:15;;;;;;;2.33;1.70;;;18.00;99.90;;;;;;5113863;28;20626;-52
2023/07/27 08:44:43;;;;;;;2.85;1.80;;;18.10;99.90;;;;;;5113871;28;20253;-52
2023/07/27 08:47:09;;;;;;;1.88;1.77;;;18.10;99.90;;;;;;5113377;28;20661;-49
2023/07/27 08:49:36;;;;;;;2.53;1.85;;;18.30;99.90;;;;;;5113250;28;20170;-52
2023/07/27 08:52:02;;;;;;;4.55;1.67;;;18.30;99.90;;;;;;5113501;28;20169;-49
2023/07/27 08:54:29;;;;;;;3.55;1.75;;;18.20;99.90;;;;;;5113472;28;20526;-53
2023/07/27 08:56:55;;;;;;;5.10;1.90;;;18.30;99.90;;;;;;5113431;28;20614;-48
2023/07/27 08:59:24;;;;;;;2.97;1.80;;;18.50;99.90;;;;;;5114160;28;20218;-51
2023/07/27 09:01:50;;;;;;;1.58;1.40;;;18.50;99.90;;;;;;5117132;28;20184;-51
2023/07/27 09:04:15;;;;;;;1.95;1.70;;;18.50;99.90;;;;;;5117140;28;20169;-53
2023/07/27 09:06:48;;;;;;;3.08;1.73;;;18.40;99.90;;;;;;5117098;28;20311;-48
2023/07/27 09:09:17;;;;;;;2.08;1.63;;;18.40;99.90;;;;;;5117018;28;20197;-53
2023/07/27 09:11:44;;;;;;;2.58;1.50;;;18.40;99.90;;;;;;5116995;28;20232;-51
2023/07/27 09:14:10;;;;;;;1.85;1.48;;;18.50;99.90;;;;;;5116950;28;20173;-49
2023/07/27 09:16:36;;;;;;;2.38;1.20;;;18.30;99.90;;;;;;5116954;28;20184;-51
2023/07/27 09:19:02;;;;;;;0.95;0.95;;;18.30;99.90;;;;;;5116601;28;20221;-51
2023/07/27 09:21:40;;;;;;;0.90;0.90;;;18.40;99.90;;;;;;5116773;28;20166;-52
2023/07/27 09:24:11;;;;;;;1.30;1.02;;;18.40;99.90;;;;;;5117071;28;20214;-53
2023/07/27 09:26:50;;;;;;;1.13;1.00;;;18.20;99.90;;;;;;5116638;28;20272;-54
2023/07/27 09:29:17;;;;;;;1.27;0.82;;;18.20;99.90;;;;;;5116599;28;20177;-53
2023/07/27 09:31:57;;;;;;;1.73;0.90;;;18.10;99.90;;;;;;5116463;28;20679;-52
2023/07/27 09:34:24;;;;;;;1.85;0.70;;;18.20;99.90;;;;;;5116542;28;20181;-50
2023/07/27 09:36:50;;;;;;;2.30;0.90;;;18.30;99.90;;;;;;5116236;28;20661;-53
2023/07/27 09:39:15;;;;;;;0.90;0.70;;;18.20;99.90;;;;;;5116497;28;20200;-53
2023/07/27 09:41:46;;;;;;;0.70;0.70;;;18.30;99.90;;;;;;5116396;28;20208;-50
2023/07/27 09:44:16;;;;;;;0.95;0.85;;;18.40;99.90;;;;;;5116168;28;20158;-53
2023/07/27 09:46:44;;;;;;;1.13;0.80;;;18.30;99.90;;;;;;5116018;28;20660;-52
2023/07/27 09:49:11;;;;;;;0.88;0.88;;;18.30;99.90;;;;;;5116122;28;20197;-53
2023/07/27 09:51:37;;;;;;;2.05;0.73;;;18.30;99.90;;;;;;5115950;28;20173;-51
2023/07/27 09:54:04;;;;;;;0.88;0.70;;;18.30;99.90;;;;;;5115883;28;20173;-53
2023/07/27 09:56:31;;;;;;;1.17;0.80;;;18.30;99.90;;;;;;5116170;28;20177;-49
2023/07/27 09:58:58;;;;;;;0.82;0.77;;;18.30;99.90;;;;;;5116101;28;20185;-50
2023/07/27 10:01:24;;;;;;;1.63;0.77;;;18.30;99.90;;;;;;5115997;28;20185;-49
2023/07/27 10:03:50;;;;;;;0.70;0.60;;;18.30;99.90;;;;;;5115767;28;20253;-53
2023/07/27 10:06:17;;;;;;;0.70;0.70;;;18.30;99.90;;;;;;5115901;28;20176;-51
2023/07/27 10:08:44;;;;;;;1.60;0.90;;;18.40;99.90;;;;;;5115836;28;20242;-50
2023/07/27 10:11:10;;;;;;;0.70;0.70;;;18.50;99.90;;;;;;5115014;28;20633;-51
2023/07/27 10:13:44;;;;;;;0.80;0.80;;;18.60;99.90;;;;;;5115785;28;20181;-50
2023/07/27 10:16:17;;;;;;;1.48;0.88;;;18.50;99.90;;;;;;5115763;28;20522;-53
2023/07/27 10:18:45;;;;;;;1.48;0.90;;;18.70;99.90;;;;;;5115229;28;20232;-50
2023/07/27 10:21:22;;;;;;;0.88;0.85;;;18.70;99.90;;;;;;5115705;28;20149;-51
2023/07/27 10:24:02;;;;;;;1.50;0.90;;;18.80;99.90;;;;;;5115591;28;20208;-49
2023/07/27 10:26:49;;;;;;;2.25;1.00;;;18.80;99.90;;;;;;5115225;28;20161;-54
2023/07/27 10:29:21;;;;;;;0.90;0.90;;;18.80;99.90;;;;;;5115443;28;20187;-51
2023/07/27 10:32:06;;;;;;;1.27;0.98;;;18.80;99.90;;;;;;5115816;28;20164;-51
2023/07/27 10:34:34;;;;;;;0.90;0.80;;;18.90;99.90;;;;;;5115401;28;20193;-52
2023/07/27 10:37:01;;;;;;;0.90;0.90;;;18.90;99.90;;;;;;5115352;28;20172;-52
2023/07/27 10:39:31;;;;;;;2.22;0.90;;;18.80;99.90;;;;;;5115274;28;20169;-53
2023/07/27 10:42:08;;;;;;;2.05;1.08;;;18.80;99.90;;;;;;5115209;28;20565;-50
2023/07/27 10:44:55;;;;;;;1.00;1.00;;;18.90;99.90;;;;;;5115247;28;20161;-52
2023/07/27 10:47:25;;;;;;;1.33;1.10;;;19.00;99.90;;;;;;5115089;28;20224;-54
2023/07/27 10:49:56;;;;;;;2.55;1.27;;;19.00;99.90;;;;;;5115053;28;20576;-53
2023/07/27 10:52:30;;;;;;;1.42;1.33;;;19.00;99.90;;;;;;5115072;28;20190;-52
2023/07/27 10:54:58;;;;;;;1.67;1.13;;;19.20;99.90;;;;;;5114974;28;20162;-52
2023/07/27 10:57:25;;;;;;;1.20;1.10;;;19.10;99.90;;;;;;5114868;28;20189;-53
2023/07/27 10:59:51;;;;;;;1.15;1.15;;;19.10;99.90;;;;;;5114835;28;20218;-52
2023/07/27 11:02:32;;;;;;;1.95;1.27;;;19.10;99.90;;;;;;5115126;28;20239;-50
2023/07/27 11:04:59;;;;;;;3.30;1.13;;;19.10;99.90;;;;;;5114862;28;20205;-53
2023/07/27 11:07:25;;;;;;;1.25;1.15;;;19.00;99.90;;;;;;5114704;28;20201;-54
2023/07/27 11:09:50;;;;;;;1.50;1.10;;;19.00;99.90;;;;;;5114745;28;20177;-51
2023/07/27 11:12:16;;;;;;;0.80;0.80;;;19.00;99.90;;;;;;5114640;28;20197;-52
2023/07/27 11:14:42;;;;;;;1.00;0.93;;;19.00;99.90;;;;;;5114661;28;20530;-50
2023/07/27 11:17:08;;;;;;;1.00;0.90;;;19.00;99.90;;;;;;5114292;28;20175;-53
2023/07/27 11:19:34;;;;;;;5.20;1.30;;;19.10;99.90;;;;;;5114464;28;20228;-50
2023/07/27 11:22:00;;;;;;;1.67;1.10;;;19.10;99.90;;;;;;5114395;28;20165;-52
2023/07/27 11:24:26;;;;;;;1.55;1.02;;;19.10;99.90;;;;;;5114366;28;20726;-49
2023/07/27 11:26:52;;;;;;;1.98;1.10;;;19.10;99.90;;;;;;5114326;28;20177;-52
2023/07/27 11:29:18;;;;;;;1.38;1.10;;;19.20;99.90;;;;;;5114360;28;20253;-50
2023/07/27 11:31:58;;;;;;;2.55;1.13;;;19.10;99.90;;;;;;5114387;28;20185;-50
2023/07/27 11:34:29;;;;;;;1.30;1.15;;;19.10;99.90;;;;;;5114281;28;20197;-48
2023/07/27 11:36:57;;;;;;;1.40;1.25;;;19.20;99.90;;;;;;5113964;28;20699;-49
2023/07/27 11:39:23;;;;;;;1.45;1.35;;;19.20;99.90;;;;;;5114279;28;20641;-49
2023/07/27 11:41:50;;;;;;;2.92;1.40;;;19.30;99.90;;;;;;5114217;28;20201;-52
2023/07/27 11:44:18;;;;;;;2.50;1.38;;;19.20;99.90;;;;;;5114101;28;20177;-50
2023/07/27 11:46:46;;;;;;;1.40;1.20;;;19.20;99.90;;;;;;5114167;28;20647;-50
2023/07/27 11:49:16;;;;;;;1.20;1.10;;;19.20;99.90;;;;;;5113988;28;20311;-53
2023/07/27 11:51:44;;;;;;;1.38;1.27;;;19.10;99.90;;;;;;5114119;28;20623;-53
2023/07/27 11:54:09;;;;;;;1.58;1.10;;;19.10;99.90;;;;;;5114056;28;20610;-52
2023/07/27 11:56:38;;;;;;;2.60;1.35;;;19.10;99.90;;;;;;5114021;28;20185;-53
2023/07/27 11:59:07;;;;;;;1.95;1.42;;;19.20;99.90;;;;;;5114026;28;20184;-50
2023/07/27 12:01:34;;;;;;;2.15;1.40;;;19.10;99.90;;;;;;5113998;28;20229;-50
2023/07/27 12:04:01;;;;;;;1.95;1.42;;;19.20;99.90;;;;;;5113934;28;20174;-52
2023/07/27 12:06:28;;;;;;;2.70;1.55;;;19.20;99.90;;;;;;5113864;28;20173;-51
2023/07/27 12:08:55;;;;;;;1.83;1.55;;;19.40;99.90;;;;;;5113759;28;20702;-52
2023/07/27 12:11:26;;;;;;;1.60;1.50;;;19.30;99.90;;;;;;5113907;28;20657;-51
2023/07/27 12:13:51;;;;;;;2.53;1.42;;;19.40;99.90;;;;;;5113791;28;20184;-54
2023/07/27 12:16:17;;;;;;;1.75;1.65;;;19.40;99.90;;;;;;5113856;28;20173;-52
2023/07/27 12:18:45;;;;;;;2.75;1.40;;;19.30;99.90;;;;;;5113330;28;20274;-53
2023/07/27 12:21:11;;;;;;;1.65;1.55;;;19.10;99.90;;;;;;5113776;28;20618;-52
2023/07/27 12:23:38;;;;;;;2.70;1.83;;;19.20;99.90;;;;;;5113446;28;20634;-51
2023/07/27 12:26:04;;;;;;;1.65;1.55;;;19.20;99.90;;;;;;5113398;28;20252;-53
2023/07/27 12:28:33;;;;;;;1.85;1.67;;;19.10;99.90;;;;;;5113662;28;20212;-49
2023/07/27 12:30:58;;;;;;;1.85;1.75;;;19.10;99.90;;;;;;5113374;28;20209;-50
2023/07/27 12:33:26;;;;;;;3.63;1.85;;;18.90;99.90;;;;;;5113723;28;20208;-52
2023/07/27 12:35:53;;;;;;;3.20;1.80;;;18.90;99.90;;;;;;5116966;28;20530;-54
2023/07/27 12:38:19;;;;;;;1.67;1.58;;;19.10;99.90;;;;;;5117590;28;20196;-50
2023/07/27 12:40:46;;;;;;;2.35;1.65;;;19.00;99.90;;;;;;5117536;28;20307;-51
2023/07/27 12:43:12;;;;;;;2.10;1.90;;;19.00;99.90;;;;;;5117576;28;20166;-53
2023/07/27 12:45:39;;;;;;;4.40;2.20;;;19.10;99.90;;;;;;5116238;28;20177;-50
2023/07/27 12:48:05;;;;;;;2.33;1.70;;;19.20;99.90;;;;;;5117402;28;20201;-51